createdAt,value
2018-03-03T00:00:03.343Z,2.59
2018-03-03T00:02:31.206Z,2.65
2018-03-03T00:04:58.662Z,2.95
2018-03-03T00:07:26.239Z,2.81
2018-03-03T00:09:54.655Z,3.06
2018-03-03T00:12:22.077Z,3.09
2018-03-03T00:14:49.472Z,2.82
2018-03-03T00:17:16.936Z,2.90
2018-03-03T00:19:44.323Z,3.12
2018-03-03T00:22:19.336Z,2.95
2018-03-03T00:24:47.268Z,3.04
2018-03-03T00:27:14.678Z,2.71
2018-03-03T00:29:42.090Z,3.02
2018-03-03T00:32:09.478Z,3.12
2018-03-03T00:34:36.952Z,2.87
2018-03-03T00:37:04.314Z,3.00
2018-03-03T00:39:31.756Z,2.63
2018-03-03T00:41:59.145Z,3.10
2018-03-03T00:44:26.570Z,3.10
2018-03-03T00:46:55.155Z,2.71
2018-03-03T00:49:22.580Z,2.78
2018-03-03T00:51:50.036Z,2.53
2018-03-03T00:54:17.442Z,3.02
2018-03-03T00:56:44.832Z,2.94
2018-03-03T00:59:12.240Z,2.89
2018-03-03T01:01:39.636Z,2.65
2018-03-03T01:04:07.192Z,2.68
2018-03-03T01:06:34.696Z,2.64
2018-03-03T01:09:02.172Z,3.02
2018-03-03T01:11:29.551Z,3.06
2018-03-03T01:13:56.941Z,2.94
2018-03-03T01:16:24.352Z,3.10
2018-03-03T01:18:51.830Z,2.91
2018-03-03T01:21:19.224Z,2.86
2018-03-03T01:23:47.014Z,2.96
2018-03-03T01:26:14.432Z,2.78
2018-03-03T01:28:41.846Z,2.70
2018-03-03T01:31:09.215Z,2.93
2018-03-03T01:33:36.633Z,3.06
2018-03-03T01:36:04.010Z,3.05
2018-03-03T01:38:31.668Z,2.76
2018-03-03T01:40:59.085Z,2.90
2018-03-03T01:43:26.583Z,2.71
2018-03-03T01:45:54.936Z,2.88
2018-03-03T01:48:22.339Z,3.11
2018-03-03T01:50:49.757Z,2.68
2018-03-03T01:53:17.234Z,2.31
2018-03-03T01:55:44.625Z,2.66
2018-03-03T01:58:12.074Z,2.78
2018-03-03T02:00:41.017Z,2.70
2018-03-03T02:03:09.281Z,2.68
2018-03-03T02:05:44.280Z,2.74
2018-03-03T02:08:11.888Z,2.80
2018-03-03T02:10:39.284Z,2.65
2018-03-03T02:13:06.897Z,2.77
2018-03-03T02:15:34.374Z,2.80
2018-03-03T02:18:01.769Z,2.70
2018-03-03T02:20:29.156Z,2.56
2018-03-03T02:22:56.542Z,2.81
2018-03-03T02:25:23.944Z,2.60
2018-03-03T02:27:51.349Z,2.61
2018-03-03T02:30:18.849Z,2.44
2018-03-03T02:32:46.261Z,2.48
2018-03-03T02:35:13.684Z,2.61
2018-03-03T02:37:41.079Z,2.68
2018-03-03T02:40:08.501Z,2.41
2018-03-03T02:42:35.895Z,2.65
2018-03-03T02:45:03.275Z,2.66
2018-03-03T02:47:30.756Z,2.74
2018-03-03T02:49:58.160Z,2.63
2018-03-03T02:52:25.574Z,2.65
2018-03-03T02:54:53.079Z,2.71
2018-03-03T02:57:20.488Z,2.73
2018-03-03T02:59:48.483Z,2.65
2018-03-03T03:02:15.914Z,2.44
2018-03-03T03:04:43.363Z,2.42
2018-03-03T03:07:10.805Z,2.66
2018-03-03T03:09:38.218Z,2.54
2018-03-03T03:12:05.627Z,2.62
2018-03-03T03:14:33.219Z,2.51
2018-03-03T03:17:00.628Z,2.76
2018-03-03T03:19:28.040Z,2.72
2018-03-03T03:21:55.468Z,2.74
2018-03-03T03:24:22.872Z,2.81
2018-03-03T03:26:50.300Z,2.75
2018-03-03T03:29:17.734Z,2.78
2018-03-03T03:31:45.120Z,2.89
2018-03-03T03:34:12.647Z,2.93
2018-03-03T03:36:40.022Z,2.75
2018-03-03T03:39:07.408Z,2.82
2018-03-03T03:41:34.813Z,2.66
2018-03-03T03:44:02.212Z,2.81
2018-03-03T03:46:29.721Z,2.57
2018-03-03T03:48:57.135Z,2.57
2018-03-03T03:51:24.535Z,2.47
2018-03-03T03:53:51.914Z,2.67
2018-03-03T03:56:19.308Z,2.55
2018-03-03T03:58:46.704Z,2.92
2018-03-03T04:01:14.113Z,2.80
2018-03-03T04:03:41.508Z,2.89
2018-03-03T04:06:08.887Z,2.65
2018-03-03T04:08:36.277Z,2.66
2018-03-03T04:11:03.686Z,2.47
2018-03-03T04:13:31.086Z,2.56
2018-03-03T04:15:58.475Z,2.79
2018-03-03T04:18:25.868Z,2.89
2018-03-03T04:20:53.300Z,2.69
2018-03-03T04:23:20.698Z,2.75
2018-03-03T04:25:48.873Z,2.86
2018-03-03T04:28:16.257Z,2.63
2018-03-03T04:30:43.669Z,2.82
2018-03-03T04:33:11.061Z,2.71
2018-03-03T04:35:38.569Z,2.77
2018-03-03T04:38:05.953Z,2.78
2018-03-03T04:40:33.399Z,2.76
2018-03-03T04:43:01.306Z,2.71
2018-03-03T04:45:28.879Z,2.71
2018-03-03T04:47:56.251Z,2.86
2018-03-03T04:50:23.637Z,2.84
2018-03-03T04:52:51.020Z,2.70
2018-03-03T04:55:18.413Z,2.79
2018-03-03T04:57:45.856Z,2.75
2018-03-03T05:00:19.180Z,2.71
2018-03-03T05:16:25.856Z,2.62
2018-03-03T05:32:26.552Z,2.77
2018-03-03T05:34:59.508Z,2.57
2018-03-03T05:37:29.947Z,2.45
2018-03-03T05:40:03.002Z,2.58
2018-03-03T05:42:36.168Z,2.69
2018-03-03T05:45:09.333Z,2.86
2018-03-03T05:47:42.277Z,2.65
2018-03-03T05:50:15.418Z,2.59
2018-03-03T05:52:53.752Z,2.73
2018-03-03T05:55:39.922Z,2.58
2018-03-03T05:58:22.119Z,2.66
2018-03-03T06:14:14.411Z,2.50
2018-03-03T06:16:41.884Z,2.73
2018-03-03T06:19:09.384Z,2.89
2018-03-03T06:21:37.000Z,2.82
2018-03-03T06:24:04.401Z,2.75
2018-03-03T06:26:31.784Z,2.82
2018-03-03T06:28:59.183Z,2.70
2018-03-03T06:31:26.648Z,2.75
2018-03-03T06:33:54.709Z,2.81
2018-03-03T06:36:22.095Z,2.91
2018-03-03T06:38:49.662Z,2.80
2018-03-03T06:41:17.071Z,2.90
2018-03-03T06:43:44.520Z,2.99
2018-03-03T06:46:12.208Z,3.06
2018-03-03T06:48:39.864Z,3.09
2018-03-03T06:51:07.257Z,2.95
2018-03-03T06:53:34.775Z,2.89
2018-03-03T06:56:02.218Z,2.77
2018-03-03T06:58:30.111Z,2.91
2018-03-03T07:00:57.510Z,2.93
2018-03-03T07:03:25.010Z,3.01
2018-03-03T07:05:52.656Z,2.96
2018-03-03T07:08:20.368Z,2.76
2018-03-03T07:10:47.774Z,2.98
2018-03-03T07:13:15.368Z,3.08
2018-03-03T07:15:42.763Z,3.14
2018-03-03T07:18:10.297Z,3.06
2018-03-03T07:20:37.849Z,3.27
2018-03-03T07:23:05.396Z,3.16
2018-03-03T07:25:33.197Z,3.14
2018-03-03T07:28:00.647Z,3.01
2018-03-03T07:30:28.202Z,3.31
2018-03-03T07:32:55.706Z,3.09
2018-03-03T07:35:23.514Z,3.17
2018-03-03T07:37:51.216Z,3.19
2018-03-03T07:40:18.656Z,3.28
2018-03-03T07:42:46.597Z,3.32
2018-03-03T07:45:14.041Z,3.58
2018-03-03T07:47:41.549Z,3.59
2018-03-03T07:50:08.996Z,3.32
2018-03-03T07:52:36.453Z,3.53
2018-03-03T07:55:03.863Z,3.47
2018-03-03T07:57:31.253Z,3.51
2018-03-03T07:59:58.800Z,3.57
2018-03-03T08:02:26.201Z,3.57
2018-03-03T08:04:53.627Z,3.85
2018-03-03T08:07:21.020Z,3.50
2018-03-03T08:09:48.869Z,3.83
2018-03-03T08:12:16.606Z,3.87
2018-03-03T08:14:44.045Z,3.89
2018-03-03T08:17:11.454Z,3.98
2018-03-03T08:19:38.845Z,3.90
2018-03-03T08:22:06.722Z,3.87
2018-03-03T08:24:34.234Z,4.10
2018-03-03T08:27:01.809Z,3.78
2018-03-03T08:29:29.278Z,3.98
2018-03-03T08:31:56.815Z,4.09
2018-03-03T08:34:24.219Z,3.99
2018-03-03T08:36:51.611Z,4.10
2018-03-03T08:39:19.049Z,4.11
2018-03-03T08:41:46.588Z,4.18
2018-03-03T08:44:13.993Z,4.01
2018-03-03T08:46:41.424Z,3.96
2018-03-03T08:49:08.930Z,4.07
2018-03-03T08:51:40.509Z,4.00
2018-03-03T08:54:07.921Z,3.97
2018-03-03T08:56:35.309Z,4.11
2018-03-03T08:59:02.730Z,4.37
2018-03-03T09:01:30.269Z,4.27
2018-03-03T09:03:57.722Z,4.27
2018-03-03T09:06:25.135Z,4.39
2018-03-03T09:08:52.602Z,4.47
2018-03-03T09:11:20.000Z,4.40
2018-03-03T09:13:47.396Z,4.04
2018-03-03T09:16:14.798Z,4.19
2018-03-03T09:18:42.267Z,4.16
2018-03-03T09:21:10.861Z,4.45
2018-03-03T09:23:38.253Z,4.72
2018-03-03T09:26:05.673Z,4.74
2018-03-03T09:28:33.121Z,4.84
2018-03-03T09:31:00.868Z,4.81
2018-03-03T09:33:28.393Z,4.65
2018-03-03T09:35:55.848Z,4.55
2018-03-03T09:38:24.256Z,4.52
2018-03-03T09:40:51.673Z,4.72
2018-03-03T09:43:19.176Z,5.14
2018-03-03T09:45:46.736Z,5.10
2018-03-03T09:48:14.124Z,5.19
2018-03-03T09:50:41.512Z,5.21
2018-03-03T09:53:09.069Z,5.43
2018-03-03T09:55:36.526Z,5.45
2018-03-03T09:58:04.248Z,5.32
2018-03-03T10:00:31.667Z,5.49
2018-03-03T10:02:59.190Z,5.66
2018-03-03T10:05:26.596Z,5.77
2018-03-03T10:07:54.078Z,5.89
2018-03-03T10:10:21.469Z,5.78
2018-03-03T10:12:49.254Z,5.63
2018-03-03T10:15:16.787Z,5.79
2018-03-03T10:17:44.165Z,5.77
2018-03-03T10:20:11.915Z,5.93
2018-03-03T10:22:40.222Z,5.75
2018-03-03T10:25:07.951Z,5.90
2018-03-03T10:27:35.389Z,5.57
2018-03-03T10:30:03.141Z,5.82
2018-03-03T10:32:30.531Z,6.27
2018-03-03T10:34:58.034Z,6.32
2018-03-03T10:37:25.702Z,6.10
2018-03-03T10:39:53.117Z,6.24
2018-03-03T10:42:20.568Z,6.37
2018-03-03T10:44:48.036Z,6.53
2018-03-03T10:47:15.459Z,6.62
2018-03-03T10:49:42.868Z,6.68
2018-03-03T10:52:10.462Z,6.90
2018-03-03T10:54:37.944Z,6.47
2018-03-03T10:57:05.411Z,6.82
2018-03-03T10:59:32.872Z,6.77
2018-03-03T11:02:00.277Z,6.91
2018-03-03T11:04:27.706Z,7.16
2018-03-03T11:06:55.116Z,7.20
2018-03-03T11:09:22.712Z,7.38
2018-03-03T11:11:50.160Z,7.43
2018-03-03T11:14:17.942Z,7.61
2018-03-03T11:16:45.372Z,7.62
2018-03-03T11:19:12.777Z,7.63
2018-03-03T11:21:40.247Z,7.59
2018-03-03T11:24:07.639Z,7.81
2018-03-03T11:26:35.041Z,8.02
2018-03-03T11:29:02.432Z,8.12
2018-03-03T11:31:29.841Z,8.02
2018-03-03T11:33:57.699Z,8.12
2018-03-03T11:36:25.123Z,8.14
2018-03-03T11:38:52.579Z,8.22
2018-03-03T11:41:19.973Z,8.23
2018-03-03T11:43:47.361Z,8.18
2018-03-03T11:46:14.845Z,8.11
2018-03-03T11:48:42.214Z,8.19
2018-03-03T11:51:09.627Z,8.43
2018-03-03T11:53:37.239Z,8.39
2018-03-03T11:56:05.780Z,8.31
2018-03-03T11:58:33.560Z,8.28
2018-03-03T12:01:00.972Z,8.05
2018-03-03T12:03:28.594Z,7.91
2018-03-03T12:05:55.993Z,7.82
2018-03-03T12:08:23.395Z,8.11
2018-03-03T12:10:50.891Z,8.18
2018-03-03T12:13:18.344Z,8.28
2018-03-03T12:15:45.748Z,8.49
2018-03-03T12:18:13.244Z,8.63
2018-03-03T12:20:40.696Z,8.95
2018-03-03T12:23:08.299Z,8.46
2018-03-03T12:25:35.681Z,9.02
2018-03-03T12:28:03.085Z,8.94
2018-03-03T12:30:30.502Z,8.98
2018-03-03T12:32:57.921Z,9.62
2018-03-03T12:35:25.328Z,10.02
2018-03-03T12:37:52.744Z,9.68
2018-03-03T12:40:20.160Z,10.23
2018-03-03T12:42:47.628Z,10.72
2018-03-03T12:45:15.070Z,11.00
2018-03-03T12:47:42.457Z,10.97
2018-03-03T12:50:09.870Z,11.61
2018-03-03T12:52:37.522Z,11.54
2018-03-03T12:55:05.027Z,11.21
2018-03-03T12:57:32.482Z,10.83
2018-03-03T12:59:59.888Z,11.62
2018-03-03T13:02:27.325Z,12.03
2018-03-03T13:04:54.726Z,12.20
2018-03-03T13:07:22.172Z,11.78
2018-03-03T13:09:50.178Z,12.23
2018-03-03T13:12:17.778Z,12.36
2018-03-03T13:14:45.672Z,12.22
2018-03-03T13:17:13.204Z,12.50
2018-03-03T13:19:40.621Z,12.86
2018-03-03T13:22:08.296Z,12.47
2018-03-03T13:24:35.651Z,12.29
2018-03-03T13:27:05.384Z,12.72
2018-03-03T13:29:32.961Z,13.29
2018-03-03T13:32:00.365Z,13.52
2018-03-03T13:34:27.805Z,14.77
2018-03-03T13:36:55.233Z,14.62
2018-03-03T13:39:22.738Z,15.22
2018-03-03T13:41:50.920Z,15.25
2018-03-03T13:44:18.479Z,14.84
2018-03-03T13:46:46.125Z,15.02
2018-03-03T13:49:13.571Z,15.20
2018-03-03T13:51:40.988Z,15.44
2018-03-03T13:54:08.419Z,16.08
2018-03-03T13:56:35.880Z,15.98
2018-03-03T13:59:03.292Z,16.31
2018-03-03T14:01:30.700Z,16.63
2018-03-03T14:03:58.132Z,16.38
2018-03-03T14:06:25.766Z,16.11
2018-03-03T14:08:53.318Z,16.24
2018-03-03T14:11:20.792Z,16.58
2018-03-03T14:13:48.217Z,16.56
2018-03-03T14:16:15.706Z,16.77
2018-03-03T14:18:43.112Z,16.80
2018-03-03T14:21:10.641Z,16.06
2018-03-03T14:23:38.057Z,15.80
2018-03-03T14:26:05.497Z,16.34
2018-03-03T14:28:33.028Z,16.53
2018-03-03T14:31:00.436Z,16.73
2018-03-03T14:33:27.838Z,15.68
2018-03-03T14:35:55.298Z,15.99
2018-03-03T14:38:22.676Z,16.08
2018-03-03T14:40:51.395Z,16.25
2018-03-03T14:43:18.922Z,15.91
2018-03-03T14:45:47.252Z,16.08
2018-03-03T14:48:14.689Z,15.82
2018-03-03T14:50:42.105Z,15.78
2018-03-03T14:53:10.035Z,16.03
2018-03-03T14:55:37.425Z,15.94
2018-03-03T14:58:04.847Z,15.78
2018-03-03T15:00:32.251Z,15.77
2018-03-03T15:02:59.693Z,15.96
2018-03-03T15:05:27.097Z,15.69
2018-03-03T15:07:54.538Z,15.95
2018-03-03T15:10:21.942Z,15.40
2018-03-03T15:12:49.327Z,15.40
2018-03-03T15:15:16.725Z,15.46
2018-03-03T15:17:44.125Z,15.37
2018-03-03T15:20:11.520Z,15.39
2018-03-03T15:22:39.131Z,14.98
2018-03-03T15:25:06.525Z,14.47
2018-03-03T15:27:33.909Z,13.27
2018-03-03T15:30:01.408Z,12.22
2018-03-03T15:32:28.822Z,12.00
2018-03-03T15:34:56.249Z,12.34
2018-03-03T15:37:23.792Z,12.09
2018-03-03T15:39:51.210Z,11.93
2018-03-03T15:42:18.815Z,11.70
2018-03-03T15:44:46.232Z,11.52
2018-03-03T15:47:13.604Z,11.12
2018-03-03T15:49:41.027Z,11.14
2018-03-03T15:52:08.404Z,10.90
2018-03-03T15:54:35.823Z,10.92
2018-03-03T15:57:03.214Z,10.72
2018-03-03T15:59:30.600Z,10.30
2018-03-03T16:01:58.112Z,10.45
2018-03-03T16:04:25.495Z,10.22
2018-03-03T16:06:52.956Z,10.45
2018-03-03T16:09:20.874Z,10.25
2018-03-03T16:11:48.310Z,10.00
2018-03-03T16:14:15.704Z,10.07
2018-03-03T16:16:44.204Z,9.85
2018-03-03T16:19:11.586Z,9.68
2018-03-03T16:21:39.016Z,9.70
2018-03-03T16:24:06.386Z,9.59
2018-03-03T16:26:33.807Z,9.27
2018-03-03T16:29:01.208Z,9.22
2018-03-03T16:31:28.625Z,8.96
2018-03-03T16:33:56.050Z,8.93
2018-03-03T16:36:23.428Z,9.21
2018-03-03T16:38:51.004Z,9.21
2018-03-03T16:41:18.401Z,8.91
2018-03-03T16:43:45.985Z,8.75
2018-03-03T16:46:13.481Z,8.72
2018-03-03T16:48:41.143Z,8.54
2018-03-03T16:51:08.545Z,8.51
2018-03-03T16:53:35.941Z,8.59
2018-03-03T16:56:03.324Z,8.34
2018-03-03T16:58:30.907Z,8.37
2018-03-03T17:00:58.320Z,8.32
2018-03-03T17:03:25.727Z,8.16
2018-03-03T17:05:53.133Z,8.02
2018-03-03T17:08:21.209Z,8.04
2018-03-03T17:10:48.606Z,7.95
2018-03-03T17:13:16.012Z,7.95
2018-03-03T17:15:43.534Z,7.94
2018-03-03T17:18:10.996Z,7.90
2018-03-03T17:20:38.382Z,8.02
2018-03-03T17:23:05.778Z,7.96
2018-03-03T17:25:33.186Z,7.80
2018-03-03T17:28:00.630Z,7.83
2018-03-03T17:30:28.003Z,7.78
2018-03-03T17:32:55.489Z,7.42
2018-03-03T17:35:22.917Z,7.37
2018-03-03T17:37:52.221Z,7.36
2018-03-03T17:40:19.763Z,7.39
2018-03-03T17:42:47.167Z,7.40
2018-03-03T17:45:14.576Z,7.38
2018-03-03T17:47:42.489Z,7.10
2018-03-03T17:50:09.900Z,7.31
2018-03-03T17:52:37.290Z,7.33
2018-03-03T17:55:04.693Z,7.15
2018-03-03T17:57:32.088Z,7.03
2018-03-03T17:59:59.600Z,7.05
2018-03-03T18:02:27.002Z,6.96
2018-03-03T18:04:54.443Z,6.69
2018-03-03T18:07:22.121Z,6.62
2018-03-03T18:09:49.594Z,6.67
2018-03-03T18:12:17.996Z,6.76
2018-03-03T18:14:45.902Z,6.45
2018-03-03T18:17:13.524Z,6.83
2018-03-03T18:19:40.934Z,6.79
2018-03-03T18:22:09.203Z,6.47
2018-03-03T18:24:36.711Z,6.04
2018-03-03T18:27:04.094Z,6.31
2018-03-03T18:29:31.496Z,6.52
2018-03-03T18:31:58.890Z,6.65
2018-03-03T18:34:26.278Z,6.47
2018-03-03T18:36:53.676Z,6.74
2018-03-03T18:39:21.678Z,6.84
2018-03-03T18:41:49.014Z,6.73
2018-03-03T18:44:16.631Z,6.74
2018-03-03T18:46:44.119Z,6.75
2018-03-03T18:49:11.558Z,6.61
2018-03-03T18:51:38.993Z,6.72
2018-03-03T18:54:06.440Z,6.54
2018-03-03T18:56:33.833Z,6.48
2018-03-03T18:59:01.481Z,6.33
2018-03-03T19:01:29.171Z,6.19
2018-03-03T19:03:56.665Z,6.35
2018-03-03T19:06:24.061Z,6.34
2018-03-03T19:08:51.669Z,6.37
2018-03-03T19:11:19.045Z,6.29
2018-03-03T19:13:46.570Z,6.34
2018-03-03T19:16:13.987Z,6.18
2018-03-03T19:18:41.365Z,6.18
2018-03-03T19:21:08.920Z,6.15
2018-03-03T19:23:36.473Z,6.36
2018-03-03T19:26:03.939Z,6.09
2018-03-03T19:28:31.341Z,6.36
2018-03-03T19:30:58.743Z,6.20
2018-03-03T19:33:26.150Z,6.30
2018-03-03T19:35:53.537Z,6.39
2018-03-03T19:38:21.846Z,6.11
2018-03-03T19:40:49.226Z,6.20
2018-03-03T19:43:16.793Z,6.09
2018-03-03T19:45:44.228Z,6.05
2018-03-03T19:48:11.695Z,5.91
2018-03-03T19:50:39.120Z,5.94
2018-03-03T19:53:06.521Z,6.04
2018-03-03T19:55:33.968Z,5.91
2018-03-03T19:58:01.500Z,6.12
2018-03-03T20:00:28.887Z,6.07
2018-03-03T20:02:56.324Z,6.21
2018-03-03T20:05:23.877Z,6.27
2018-03-03T20:07:51.882Z,6.17
2018-03-03T20:10:19.333Z,6.14
2018-03-03T20:12:46.765Z,6.29
2018-03-03T20:15:14.137Z,6.24
2018-03-03T20:17:41.568Z,6.34
2018-03-03T20:20:08.963Z,6.33
2018-03-03T20:22:36.364Z,6.32
2018-03-03T20:25:03.782Z,6.35
2018-03-03T20:27:31.198Z,6.34
2018-03-03T20:29:58.581Z,6.25
2018-03-03T20:32:25.980Z,6.19
2018-03-03T20:34:54.314Z,6.39
2018-03-03T20:37:22.002Z,6.43
2018-03-03T20:39:49.412Z,6.25
2018-03-03T20:42:19.856Z,6.06
2018-03-03T20:44:47.362Z,6.09
2018-03-03T20:47:15.253Z,6.24
2018-03-03T20:49:42.695Z,6.35
2018-03-03T20:52:10.265Z,6.28
2018-03-03T20:54:37.776Z,6.65
2018-03-03T20:57:05.537Z,6.39
2018-03-03T20:59:33.048Z,6.32
2018-03-03T21:02:00.509Z,6.37
2018-03-03T21:04:27.904Z,6.40
2018-03-03T21:06:55.276Z,6.35
2018-03-03T21:09:22.672Z,6.53
2018-03-03T21:12:05.844Z,6.17
2018-03-03T21:14:33.371Z,6.45
2018-03-03T21:17:00.827Z,6.38
2018-03-03T21:19:28.219Z,6.21
2018-03-03T21:21:55.637Z,6.22
2018-03-03T21:24:23.036Z,6.53
2018-03-03T21:26:50.429Z,6.57
2018-03-03T21:29:17.853Z,6.17
2018-03-03T21:31:45.221Z,6.26
2018-03-03T21:34:12.704Z,6.16
2018-03-03T21:36:40.107Z,6.17
2018-03-03T21:39:07.497Z,6.09
2018-03-03T21:41:35.681Z,6.06
2018-03-03T21:44:03.150Z,5.95
2018-03-03T21:46:30.544Z,6.11
2018-03-03T21:48:57.988Z,6.09
2018-03-03T21:51:33.192Z,6.32
2018-03-03T21:54:01.106Z,6.43
2018-03-03T21:56:28.571Z,6.60
2018-03-03T21:58:55.943Z,6.41
2018-03-03T22:01:23.326Z,6.47
2018-03-03T22:03:50.752Z,6.18
2018-03-03T22:06:20.927Z,6.44
2018-03-03T22:08:48.402Z,6.46
2018-03-03T22:11:15.797Z,6.36
2018-03-03T22:13:43.185Z,6.42
2018-03-03T22:16:10.577Z,6.03
2018-03-03T22:18:37.981Z,6.03
2018-03-03T22:21:05.376Z,6.22
2018-03-03T22:23:32.761Z,6.13
2018-03-03T22:26:00.159Z,6.31
2018-03-03T22:28:27.589Z,6.24
2018-03-03T22:30:54.986Z,6.45
2018-03-03T22:33:22.630Z,6.16
2018-03-03T22:35:50.032Z,6.30
2018-03-03T22:38:17.471Z,6.25
2018-03-03T22:40:44.841Z,6.20
2018-03-03T22:43:12.224Z,6.10
2018-03-03T22:45:39.609Z,6.43
2018-03-03T22:48:07.014Z,6.35
2018-03-03T22:50:34.428Z,6.32
2018-03-03T22:53:01.819Z,6.41
2018-03-03T22:55:29.249Z,6.64
2018-03-03T22:57:56.695Z,6.26
2018-03-03T23:00:24.088Z,6.17
2018-03-03T23:02:51.502Z,6.36
2018-03-03T23:05:18.925Z,6.08
2018-03-03T23:07:46.357Z,5.88
2018-03-03T23:10:13.863Z,5.89
2018-03-03T23:12:41.272Z,6.24
2018-03-03T23:15:08.681Z,6.05
2018-03-03T23:17:36.119Z,6.29
2018-03-03T23:20:03.502Z,6.31
2018-03-03T23:22:30.900Z,6.42
2018-03-03T23:24:58.361Z,6.64
2018-03-03T23:27:25.745Z,5.93
2018-03-03T23:29:53.152Z,6.00
2018-03-03T23:32:20.520Z,6.19
2018-03-03T23:34:47.917Z,5.82
2018-03-03T23:37:15.291Z,6.10
2018-03-03T23:39:49.029Z,6.22
2018-03-03T23:42:24.476Z,5.90
2018-03-03T23:44:52.868Z,6.12
2018-03-03T23:47:20.273Z,6.09
2018-03-03T23:49:47.745Z,6.13
2018-03-03T23:52:15.136Z,6.17
2018-03-03T23:54:42.530Z,6.18
2018-03-03T23:57:10.408Z,6.11
2018-03-03T23:59:37.969Z,5.97
